Time;durP1;ratioP1;P1;durP2;ratioP2;P2;SDS_P1;SDS_P2;PMS_P1;PMS_P2;Temp;Humidity;BMP_temperature;BMP_pressure;BME280_temperature;BME280_humidity;BME280_pressure;Samples;Min_cycle;Max_cycle;Signal;HPM_P1;HPM_P2
2022/04/25 00:00:48;;;;;;;23.33;18.03;;;;;;;9.68;100.00;97116.78;5076116;28;20238;-66
2022/04/25 00:03:15;;;;;;;21.00;16.53;;;;;;;9.66;100.00;97115.25;5075919;28;20216;-65
2022/04/25 00:05:41;;;;;;;20.90;16.50;;;;;;;9.75;100.00;97117.13;5076155;28;20219;-65
2022/04/25 00:08:09;;;;;;;21.00;16.40;;;;;;;9.71;100.00;97121.81;5076089;28;20222;-67
2022/04/25 00:10:35;;;;;;;21.30;17.70;;;;;;;9.71;100.00;97126.25;5058288;28;20562;-66
2022/04/25 00:13:02;;;;;;;25.23;19.13;;;;;;;9.71;100.00;97120.97;5076055;28;20214;-66
2022/04/25 00:15:29;;;;;;;24.23;18.60;;;;;;;9.69;100.00;97122.91;5075954;28;20214;-66
2022/04/25 00:17:56;;;;;;;24.73;18.67;;;;;;;9.71;100.00;97120.97;5075804;28;20223;-66
2022/04/25 00:20:22;;;;;;;26.10;19.33;;;;;;;9.73;100.00;97124.34;5075540;28;20246;-65
2022/04/25 00:22:49;;;;;;;22.63;17.40;;;;;;;9.74;100.00;97116.28;5075475;28;20694;-65
2022/04/25 00:25:16;;;;;;;25.13;19.00;;;;;;;9.75;100.00;97119.78;5075763;28;20218;-65
2022/04/25 00:27:43;;;;;;;25.97;19.53;;;;;;;9.75;100.00;97120.63;5075789;28;20220;-65
2022/04/25 00:30:11;;;;;;;22.60;18.67;;;;;;;9.72;100.00;97128.78;5075689;28;20224;-65
2022/04/25 00:32:37;;;;;;;23.97;18.97;;;;;;;9.75;100.00;97127.69;5075324;28;20216;-65
2022/04/25 00:35:05;;;;;;;27.70;20.37;;;;;;;9.76;100.00;97135.50;5075564;28;20218;-65
2022/04/25 00:37:32;;;;;;;24.67;19.40;;;;;;;9.80;100.00;97136.88;5073888;28;20221;-66
2022/04/25 00:39:58;;;;;;;23.97;19.00;;;;;;;9.84;100.00;97135.69;5075345;28;20242;-67
2022/04/25 00:42:27;;;;;;;25.27;20.30;;;;;;;9.86;100.00;97130.28;5075220;28;20246;-65
2022/04/25 00:44:53;;;;;;;23.00;18.60;;;;;;;9.84;100.00;97132.22;5075313;28;20222;-67
2022/04/25 00:47:21;;;;;;;28.30;21.27;;;;;;;9.78;100.00;97130.91;5075558;28;20219;-67
2022/04/25 00:49:47;;;;;;;32.20;23.20;;;;;;;9.69;100.00;97136.94;5075401;28;20222;-66
2022/04/25 00:52:14;;;;;;;29.60;23.10;;;;;;;9.58;100.00;97136.13;5075374;28;20221;-65
2022/04/25 00:54:41;;;;;;;30.03;23.47;;;;;;;9.41;100.00;97137.50;5075082;28;20217;-65
2022/04/25 00:57:08;;;;;;;27.63;22.07;;;;;;;9.19;100.00;97134.88;5075205;28;20301;-65
2022/04/25 00:59:37;;;;;;;32.40;23.53;;;;;;;9.02;100.00;97137.19;5073837;28;20227;-67
2022/04/25 01:02:04;;;;;;;29.27;22.20;;;;;;;8.92;100.00;97144.97;5074039;28;20218;-67
2022/04/25 01:04:30;;;;;;;30.80;24.53;;;;;;;8.83;100.00;97142.22;5073670;28;20214;-66
2022/04/25 01:06:57;;;;;;;32.47;24.90;;;;;;;8.86;100.00;97142.81;5074553;28;20296;-65
2022/04/25 01:09:24;;;;;;;32.20;24.53;;;;;;;8.93;100.00;97148.47;5074270;28;20225;-66
2022/04/25 01:11:51;;;;;;;31.10;24.47;;;;;;;9.00;100.00;97147.84;5074038;28;20218;-65
2022/04/25 01:14:18;;;;;;;32.00;24.43;;;;;;;9.11;100.00;97147.00;5074917;28;20222;-65
2022/04/25 01:16:47;;;;;;;29.83;23.33;;;;;;;9.14;100.00;97138.84;5074774;28;20220;-65
2022/04/25 01:19:14;;;;;;;28.73;22.53;;;;;;;9.26;100.00;97140.50;5074591;28;20299;-65
2022/04/25 01:21:43;;;;;;;29.13;22.63;;;;;;;9.30;100.00;97142.78;5074609;28;20238;-65
2022/04/25 01:29:41;;;;;;;32.10;23.03;;;;;;;9.33;100.00;97154.88;5072637;28;20217;-65
2022/04/25 01:32:08;;;;;;;31.70;23.47;;;;;;;9.42;100.00;97151.53;5074226;28;20224;-65
2022/04/25 01:34:37;;;;;;;29.63;23.53;;;;;;;9.45;100.00;97159.19;5074165;28;20668;-65
2022/04/25 01:37:08;;;;;;;32.47;23.80;;;;;;;9.42;100.00;97151.53;5074399;28;20319;-65
2022/04/25 01:39:37;;;;;;;29.97;22.97;;;;;;;9.43;100.00;97151.38;5074232;28;20293;-65
2022/04/25 01:42:05;;;;;;;27.87;22.40;;;;;;;9.44;100.00;97157.50;5074021;28;20239;-67
2022/04/25 01:44:31;;;;;;;29.47;22.77;;;;;;;9.46;100.00;97163.50;5074209;28;20238;-65
2022/04/25 01:46:58;;;;;;;27.90;22.40;;;;;;;9.45;100.00;97157.38;5074163;28;20232;-66
2022/04/25 01:49:25;;;;;;;31.60;24.63;;;;;;;9.44;100.00;97161.00;5074221;28;20215;-65
2022/04/25 01:51:51;;;;;;;28.57;22.97;;;;;;;9.43;100.00;97163.75;5073855;28;20219;-67
2022/04/25 01:54:23;;;;;;;28.33;21.27;;;;;;;9.40;100.00;97161.34;5072696;28;20209;-66
2022/04/25 01:56:51;;;;;;;29.23;22.60;;;;;;;9.36;100.00;97154.66;5058607;28;20214;-67
2022/04/25 01:59:18;;;;;;;29.67;22.97;;;;;;;9.32;100.00;97161.13;5073834;28;20660;-66
2022/04/25 02:01:44;;;;;;;26.93;22.00;;;;;;;9.32;100.00;97156.69;5073536;28;20734;-67
2022/04/25 02:04:11;;;;;;;27.83;21.97;;;;;;;9.30;100.00;97153.31;5073659;28;20211;-65
2022/04/25 02:06:37;;;;;;;28.63;22.90;;;;;;;9.32;100.00;97161.97;5073851;28;20209;-66
2022/04/25 02:09:04;;;;;;;27.07;21.00;;;;;;;9.34;100.00;97164.47;5073730;28;20229;-66
2022/04/25 02:11:31;;;;;;;30.80;23.73;;;;;;;9.32;100.00;97166.41;5073746;28;20234;-65
2022/04/25 02:13:59;;;;;;;29.47;22.67;;;;;;;9.31;100.00;97167.34;5073529;28;20326;-66
2022/04/25 02:16:26;;;;;;;28.23;22.27;;;;;;;9.32;100.00;97171.66;5073591;28;20212;-66
2022/04/25 02:18:54;;;;;;;28.03;22.27;;;;;;;9.36;100.00;97173.09;5073562;28;20232;-66
2022/04/25 02:21:21;;;;;;;29.17;21.53;;;;;;;9.37;100.00;97180.06;5071833;28;20234;-65
2022/04/25 02:23:48;;;;;;;25.70;21.07;;;;;;;9.38;100.00;97177.31;5072641;28;20212;-65
2022/04/25 02:26:14;;;;;;;26.87;22.07;;;;;;;9.39;100.00;97175.50;5072926;28;20212;-65
2022/04/25 02:28:40;;;;;;;27.43;21.47;;;;;;;9.38;100.00;97176.47;5073483;28;20575;-65
2022/04/25 02:31:09;;;;;;;26.77;21.40;;;;;;;9.37;100.00;97177.41;5073235;28;20224;-65
2022/04/25 02:33:36;;;;;;;27.73;21.83;;;;;;;9.37;100.00;97174.78;5073402;28;20209;-65
2022/04/25 02:36:04;;;;;;;29.03;22.20;;;;;;;9.32;100.00;97174.31;5072998;28;20221;-65
2022/04/25 02:38:31;;;;;;;27.97;22.00;;;;;;;9.30;100.00;97184.16;5073291;28;20209;-65
2022/04/25 02:41:05;;;;;;;29.27;22.40;;;;;;;9.27;100.00;97171.19;5073232;28;20273;-65
2022/04/25 02:43:32;;;;;;;28.13;22.30;;;;;;;9.28;100.00;97178.13;5073290;28;20242;-65
2022/04/25 02:45:59;;;;;;;29.80;22.63;;;;;;;9.27;100.00;97185.22;5073064;28;20257;-65
2022/04/25 02:48:27;;;;;;;28.97;22.70;;;;;;;9.30;100.00;97176.22;5071598;28;20218;-65
2022/04/25 02:50:53;;;;;;;28.00;21.60;;;;;;;9.31;100.00;97185.81;5073259;28;20218;-65
2022/04/25 02:53:20;;;;;;;27.73;21.77;;;;;;;9.36;100.00;97186.28;5073085;28;20214;-65
2022/04/25 02:55:46;;;;;;;28.60;22.00;;;;;;;9.35;100.00;97181.97;5073098;28;20207;-65
2022/04/25 02:58:14;;;;;;;26.70;20.60;;;;;;;9.37;100.00;97190.59;5072798;28;20225;-65
2022/04/25 03:00:42;;;;;;;28.03;22.23;;;;;;;9.37;100.00;97182.69;5072802;28;20692;-65
2022/04/25 03:03:09;;;;;;;27.90;20.97;;;;;;;9.36;100.00;97192.38;5072756;28;20217;-65
2022/04/25 03:05:36;;;;;;;26.20;20.87;;;;;;;9.37;100.00;97198.50;5056758;28;20215;-65
2022/04/25 03:08:03;;;;;;;27.07;21.13;;;;;;;9.40;100.00;97193.84;5073068;28;20215;-65
2022/04/25 03:10:30;;;;;;;26.57;20.57;;;;;;;9.44;100.00;97197.91;5072805;28;20222;-65
2022/04/25 03:12:56;;;;;;;30.13;22.60;;;;;;;9.44;100.00;97199.69;5071437;28;20587;-65
2022/04/25 03:15:23;;;;;;;26.87;21.20;;;;;;;9.46;100.00;97200.41;5072865;28;20242;-66
2022/04/25 03:17:50;;;;;;;26.83;21.40;;;;;;;9.48;100.00;97198.50;5072953;28;20275;-66
2022/04/25 03:20:18;;;;;;;28.77;21.47;;;;;;;9.51;100.00;97204.38;5072456;28;20211;-66
2022/04/25 03:22:46;;;;;;;29.90;22.10;;;;;;;9.48;100.00;97204.59;5072521;28;20272;-67
2022/04/25 03:25:13;;;;;;;28.50;22.57;;;;;;;9.47;100.00;97202.94;5072654;28;20215;-67
2022/04/25 03:27:39;;;;;;;30.30;22.97;;;;;;;9.41;100.00;97207.84;5072452;28;20220;-67
2022/04/25 03:30:07;;;;;;;28.90;22.37;;;;;;;9.32;100.00;97203.31;5072821;28;20224;-66
2022/04/25 03:32:34;;;;;;;30.83;23.83;;;;;;;9.22;100.00;97205.84;5072779;28;20222;-67
2022/04/25 03:35:03;;;;;;;28.47;22.60;;;;;;;9.05;100.00;97205.47;5075365;28;20616;-68
2022/04/25 03:37:30;;;;;;;30.60;22.93;;;;;;;8.92;100.00;97210.00;5076463;28;20698;-66
2022/04/25 03:39:58;;;;;;;29.53;22.90;;;;;;;8.79;100.00;97225.91;5075056;28;20589;-65
2022/04/25 03:42:25;;;;;;;27.77;21.93;;;;;;;8.72;100.00;97223.84;5076607;28;20243;-65
2022/04/25 03:44:52;;;;;;;30.50;23.73;;;;;;;8.58;100.00;97227.53;5076589;28;20214;-65
2022/04/25 03:47:18;;;;;;;33.23;24.80;;;;;;;8.52;100.00;97233.25;5076333;28;20220;-65
2022/04/25 03:49:45;;;;;;;30.93;23.77;;;;;;;8.58;100.00;97224.06;5076533;28;20214;-65
2022/04/25 03:52:11;;;;;;;33.87;24.70;;;;;;;8.65;100.00;97227.91;5076469;28;20212;-65
2022/04/25 03:57:23;;;;;;;33.60;25.13;;;;;;;8.89;100.00;97229.53;5076129;28;20266;-66
2022/04/25 03:59:49;;;;;;;31.73;23.93;;;;;;;8.96;100.00;97235.16;5076344;28;20234;-66
2022/04/25 04:02:16;;;;;;;30.23;23.03;;;;;;;9.05;100.00;97234.47;5076108;28;20249;-67
2022/04/25 04:04:42;;;;;;;31.10;24.07;;;;;;;9.05;100.00;97237.09;5074432;28;20229;-65
2022/04/25 04:07:09;;;;;;;30.20;23.27;;;;;;;9.05;100.00;97232.66;5076244;28;20219;-65
2022/04/25 04:09:49;;;;;;;32.30;23.80;;;;;;;9.00;100.00;97240.06;5076079;28;20224;-66
2022/04/25 04:12:16;;;;;;;33.40;24.33;;;;;;;8.95;100.00;97246.66;5075752;28;20714;-66
2022/04/25 04:14:45;;;;;;;32.37;24.33;;;;;;;9.02;100.00;97258.41;5076088;28;20219;-65
2022/04/25 04:17:11;;;;;;;33.40;24.93;;;;;;;9.06;100.00;97249.31;5075919;28;20230;-67
2022/04/25 04:19:39;;;;;;;34.37;25.27;;;;;;;9.10;100.00;97261.28;5075934;28;20207;-65
2022/04/25 04:22:06;;;;;;;31.73;23.37;;;;;;;9.13;100.00;97255.78;5075811;28;20320;-66
2022/04/25 04:24:34;;;;;;;31.07;24.33;;;;;;;9.15;100.00;97267.03;5075823;28;20560;-67
2022/04/25 04:27:02;;;;;;;31.27;24.07;;;;;;;9.15;100.00;97275.81;5075535;28;20703;-67
2022/04/25 04:29:29;;;;;;;30.97;23.87;;;;;;;9.17;100.00;97271.25;5075790;28;20222;-67
2022/04/25 04:31:57;;;;;;;31.80;23.67;;;;;;;9.16;100.00;97277.47;5073792;28;20302;-65
2022/04/25 04:34:24;;;;;;;31.73;24.37;;;;;;;9.21;100.00;97279.75;5075401;28;20673;-65
2022/04/25 04:36:50;;;;;;;33.43;23.73;;;;;;;9.19;100.00;97281.69;5075635;28;20225;-65
2022/04/25 04:39:17;;;;;;;29.97;22.90;;;;;;;9.17;100.00;97283.59;5075552;28;20214;-65
2022/04/25 04:41:44;;;;;;;32.33;23.33;;;;;;;9.12;100.00;97285.75;5074893;28;20246;-65
2022/04/25 04:44:10;;;;;;;30.63;23.67;;;;;;;9.13;100.00;97284.78;5075235;28;20671;-65
2022/04/25 04:46:37;;;;;;;32.23;23.83;;;;;;;9.15;100.00;97277.59;5073436;28;20214;-65
2022/04/25 04:49:05;;;;;;;30.80;23.77;;;;;;;9.23;100.00;97278.69;5075351;28;20229;-65
2022/04/25 04:51:31;;;;;;;32.47;24.13;;;;;;;9.30;100.00;97292.25;5075062;28;20218;-64
2022/04/25 04:53:59;;;;;;;33.63;25.03;;;;;;;9.33;100.00;97302.53;5075417;28;20211;-65
2022/04/25 04:56:26;;;;;;;32.47;22.63;;;;;;;9.46;100.00;97305.91;5073248;28;20681;-65
2022/04/25 04:58:52;;;;;;;30.70;23.57;;;;;;;9.58;100.00;97307.59;5075223;28;20235;-65
2022/04/25 05:01:19;;;;;;;31.23;23.87;;;;;;;9.70;100.00;97310.13;5074853;28;20234;-65
2022/04/25 05:03:46;;;;;;;30.03;22.73;;;;;;;9.78;100.00;97312.16;5075048;28;20246;-65
2022/04/25 05:06:14;;;;;;;29.70;22.63;;;;;;;9.84;100.00;97315.13;5075060;28;20633;-65
2022/04/25 05:08:41;;;;;;;29.53;23.47;;;;;;;9.87;100.00;97317.56;5074992;28;20220;-65
2022/04/25 05:11:08;;;;;;;29.53;22.60;;;;;;;9.88;100.00;97323.66;5074867;28;20218;-65
2022/04/25 05:13:35;;;;;;;29.67;22.60;;;;;;;9.92;100.00;97327.72;5075008;28;20679;-65
2022/04/25 05:16:02;;;;;;;27.17;22.00;;;;;;;9.88;100.00;97321.00;5074523;28;20737;-65
2022/04/25 05:18:28;;;;;;;31.33;24.10;;;;;;;9.89;100.00;97327.97;5074985;28;20259;-65
2022/04/25 05:20:55;;;;;;;29.03;23.03;;;;;;;9.84;100.00;97327.50;5074592;28;20262;-65
2022/04/25 05:23:23;;;;;;;30.17;23.50;;;;;;;9.78;100.00;97322.72;5072951;28;20215;-65
2022/04/25 05:25:49;;;;;;;31.17;23.27;;;;;;;9.75;100.00;97329.06;5074632;28;20210;-65
2022/04/25 05:28:15;;;;;;;29.93;22.97;;;;;;;9.78;100.00;97334.09;5074515;28;20213;-65
2022/04/25 05:30:43;;;;;;;32.73;24.87;;;;;;;9.82;100.00;97334.69;5074481;28;20215;-65
2022/04/25 05:33:09;;;;;;;29.90;22.87;;;;;;;9.86;100.00;97336.13;5074219;28;20567;-65
2022/04/25 05:35:37;;;;;;;30.10;23.00;;;;;;;9.90;100.00;97334.94;5074150;28;20675;-65
2022/04/25 05:38:06;;;;;;;30.80;23.67;;;;;;;9.91;100.00;97336.63;5074119;28;20208;-65
2022/04/25 05:40:34;;;;;;;29.53;22.63;;;;;;;9.93;100.00;97353.16;5074266;28;20230;-66
2022/04/25 05:43:03;;;;;;;29.80;22.93;;;;;;;10.02;100.00;97341.84;5074378;28;20258;-65
2022/04/25 05:45:30;;;;;;;29.77;22.83;;;;;;;10.15;100.00;97348.72;5074277;28;20217;-65
2022/04/25 05:47:57;;;;;;;31.27;22.77;;;;;;;10.25;100.00;97351.47;5074107;28;20227;-64
2022/04/25 05:53:08;;;;;;;30.60;23.70;;;;;;;10.47;100.00;97354.06;5073895;28;20223;-65
2022/04/25 05:55:37;;;;;;;31.63;23.83;;;;;;;10.57;100.00;97354.97;5074145;28;20212;-65
2022/04/25 05:58:06;;;;;;;28.30;22.40;;;;;;;10.71;100.00;97354.72;5073225;28;20723;-65
2022/04/25 06:00:34;;;;;;;29.60;23.33;;;;;;;10.93;100.00;97357.25;5073906;28;20220;-65
2022/04/25 06:03:01;;;;;;;28.17;23.20;;;;;;;11.27;100.00;97356.13;5073891;28;20327;-65
2022/04/25 06:05:28;;;;;;;25.50;20.77;;;;;;;11.81;100.00;97348.81;5073923;28;20225;-65
2022/04/25 06:07:55;;;;;;;26.37;21.30;;;;;;;12.44;100.00;97356.41;5073586;28;20221;-65
2022/04/25 06:10:23;;;;;;;26.47;22.23;;;;;;;12.50;100.00;97361.19;5073854;28;20215;-65
2022/04/25 06:12:53;;;;;;;22.87;19.17;;;;;;;12.39;100.00;97353.34;5073737;28;20216;-65
2022/04/25 06:15:24;;;;;;;26.57;22.13;;;;;;;12.73;100.00;97354.66;5072362;28;20215;-64
2022/04/25 06:17:51;;;;;;;26.50;22.20;;;;;;;13.22;100.00;97357.22;5073317;28;20221;-64
2022/04/25 06:20:18;;;;;;;23.10;20.17;;;;;;;13.59;100.00;97352.81;5073408;28;20222;-65
2022/04/25 06:22:52;;;;;;;23.47;19.33;;;;;;;13.90;98.87;97351.63;5073318;28;20240;-64
2022/04/25 06:25:18;;;;;;;21.93;19.47;;;;;;;13.84;97.18;97354.84;5073562;28;20259;-65
2022/04/25 06:27:45;;;;;;;21.97;19.43;;;;;;;13.46;95.43;97353.13;5073537;28;20223;-64
2022/04/25 06:30:14;;;;;;;23.33;19.10;;;;;;;13.02;94.29;97360.88;5073302;28;20218;-65
2022/04/25 06:32:40;;;;;;;23.23;18.70;;;;;;;12.73;97.05;97368.78;5073605;28;20221;-66
2022/04/25 06:35:09;;;;;;;22.47;18.37;;;;;;;12.65;98.85;97375.72;5073471;28;20214;-65
2022/04/25 06:37:35;;;;;;;20.17;17.00;;;;;;;12.68;99.64;97375.44;5073412;28;20224;-65
2022/04/25 06:40:02;;;;;;;19.03;16.87;;;;;;;12.81;100.00;97376.00;5073327;28;20216;-65
2022/04/25 06:42:28;;;;;;;20.43;17.03;;;;;;;12.88;99.07;97382.44;5071775;28;20757;-64
2022/04/25 06:44:55;;;;;;;21.70;18.60;;;;;;;13.05;99.65;97376.47;5073001;28;20246;-65
2022/04/25 06:47:23;;;;;;;21.30;17.93;;;;;;;13.17;98.18;97383.31;5073349;28;20221;-65
2022/04/25 06:49:49;;;;;;;21.03;18.23;;;;;;;13.16;94.70;97371.03;5057233;28;20218;-64
2022/04/25 06:52:16;;;;;;;20.00;17.43;;;;;;;13.03;92.63;97373.16;5073067;28;20225;-66
2022/04/25 06:54:42;;;;;;;19.87;16.93;;;;;;;12.98;93.59;97378.88;5072562;28;20276;-66
2022/04/25 06:57:09;;;;;;;19.53;17.23;;;;;;;13.02;93.03;97369.63;5073106;28;20220;-66
2022/04/25 06:59:35;;;;;;;17.87;15.67;;;;;;;13.19;93.21;97376.06;5072834;28;20242;-65
2022/04/25 07:02:01;;;;;;;18.50;15.80;;;;;;;13.32;92.91;97377.44;5072800;28;20231;-65
2022/04/25 07:04:29;;;;;;;17.93;16.03;;;;;;;13.46;91.99;97384.16;5072962;28;20302;-65
2022/04/25 07:06:56;;;;;;;18.73;15.80;;;;;;;13.45;88.24;97380.66;5071170;28;20218;-65
2022/04/25 07:09:23;;;;;;;18.47;16.10;;;;;;;13.18;88.70;97379.69;5072337;28;20218;-66
2022/04/25 07:11:49;;;;;;;18.97;16.13;;;;;;;12.98;89.82;97384.19;5072665;28;20223;-65
2022/04/25 07:14:18;;;;;;;17.30;15.07;;;;;;;12.91;91.02;97387.47;5073026;28;20218;-65
2022/04/25 07:16:48;;;;;;;18.97;16.97;;;;;;;12.87;92.82;97389.56;5072661;28;20582;-66
2022/04/25 07:19:15;;;;;;;19.93;16.90;;;;;;;12.90;91.27;97385.81;5072607;28;20216;-65
2022/04/25 07:29:54;;;;;;;16.73;14.97;;;;;;;13.31;90.12;97391.72;5072609;28;20271;-64
2022/04/25 07:32:21;;;;;;;17.03;14.67;;;;;;;13.55;91.27;97389.44;5071131;28;20218;-65
2022/04/25 07:34:48;;;;;;;18.10;15.87;;;;;;;13.79;92.25;97381.00;5072362;28;20231;-65
2022/04/25 07:37:17;;;;;;;18.27;16.07;;;;;;;13.89;89.03;97389.78;5072766;28;20211;-65
2022/04/25 07:39:45;;;;;;;19.10;16.70;;;;;;;13.87;87.88;97389.09;5072896;28;20585;-65
2022/04/25 07:42:15;;;;;;;18.10;16.23;;;;;;;13.67;87.98;97380.34;5072367;28;20282;-65
2022/04/25 07:44:42;;;;;;;19.50;17.20;;;;;;;13.52;89.14;97388.91;5072385;28;20215;-67
2022/04/25 07:47:08;;;;;;;17.57;15.60;;;;;;;13.47;90.69;97383.16;5072721;28;20212;-65
2022/04/25 07:49:35;;;;;;;18.57;16.60;;;;;;;13.55;92.87;97393.91;5071820;28;20211;-65
2022/04/25 07:52:02;;;;;;;18.70;16.67;;;;;;;13.67;91.12;97392.78;5072114;28;20223;-65
2022/04/25 07:54:29;;;;;;;18.13;16.23;;;;;;;13.65;86.75;97384.13;5071662;28;20212;-65
2022/04/25 07:56:56;;;;;;;20.20;16.87;;;;;;;13.67;89.99;97392.78;5071894;28;20707;-65
2022/04/25 07:59:23;;;;;;;18.90;16.90;;;;;;;13.79;89.33;97389.81;5070193;28;20699;-65
2022/04/25 08:01:49;;;;;;;18.00;16.10;;;;;;;14.08;88.08;97398.56;5071776;28;20211;-65
2022/04/25 08:04:16;;;;;;;18.73;16.20;;;;;;;14.31;88.67;97399.03;5071509;28;20216;-65
2022/04/25 08:06:42;;;;;;;18.17;16.27;;;;;;;14.57;90.16;97390.25;5070571;28;20218;-65
2022/04/25 08:09:09;;;;;;;19.50;17.33;;;;;;;14.68;88.79;97397.19;5067491;28;20216;-66
2022/04/25 08:11:37;;;;;;;18.73;16.80;;;;;;;14.78;87.09;97397.97;5070905;28;20692;-65
2022/04/25 08:19:31;;;;;;;21.10;18.73;;;;;;;15.05;85.72;97405.88;5045879;28;20251;-64
2022/04/25 08:22:00;;;;;;;20.50;17.40;;;;;;;14.98;85.36;97410.97;5071223;28;20675;-65
2022/04/25 08:24:27;;;;;;;19.63;17.53;;;;;;;15.01;84.80;97404.50;5071104;28;20208;-64
2022/04/25 08:26:55;;;;;;;19.47;16.97;;;;;;;15.00;83.06;97413.47;5073003;28;20215;-65
2022/04/25 08:29:22;;;;;;;18.03;16.17;;;;;;;15.16;84.83;97414.47;5074439;28;20217;-64
2022/04/25 08:31:49;;;;;;;18.23;16.33;;;;;;;15.24;83.28;97411.06;5073810;28;20224;-66
2022/04/25 08:34:16;;;;;;;17.77;15.97;;;;;;;15.15;81.12;97423.47;5074315;28;20218;-64
2022/04/25 08:36:43;;;;;;;17.23;15.03;;;;;;;15.04;79.43;97420.19;5075036;28;20677;-65
2022/04/25 08:39:09;;;;;;;16.10;14.40;;;;;;;15.00;80.44;97424.13;5075043;28;20228;-65
2022/04/25 08:41:41;;;;;;;17.00;15.30;;;;;;;15.05;82.03;97427.19;5074978;28;20213;-65
2022/04/25 08:44:09;;;;;;;17.63;15.83;;;;;;;15.11;81.88;97429.25;5072349;28;20293;-67
2022/04/25 08:46:37;;;;;;;15.10;13.57;;;;;;;15.19;81.80;97429.31;5075002;28;20220;-67
2022/04/25 08:49:04;;;;;;;16.60;14.90;;;;;;;15.16;79.73;97434.97;5075080;28;20322;-66
2022/04/25 08:51:34;;;;;;;15.97;14.37;;;;;;;15.25;81.34;97434.88;5074624;28;20669;-64
2022/04/25 08:54:03;;;;;;;15.20;13.50;;;;;;;15.34;82.69;97434.00;5073720;28;20286;-64
2022/04/25 08:56:29;;;;;;;15.80;14.10;;;;;;;15.37;83.37;97438.19;5074830;28;20591;-65
2022/04/25 08:58:57;;;;;;;15.70;14.03;;;;;;;15.36;82.39;97439.16;5074841;28;20220;-65
2022/04/25 09:01:25;;;;;;;15.43;13.83;;;;;;;15.46;82.23;97437.28;5074904;28;20232;-65
2022/04/25 09:03:51;;;;;;;16.07;14.30;;;;;;;15.57;80.67;97435.22;5074331;28;20244;-65
2022/04/25 09:06:18;;;;;;;17.30;15.50;;;;;;;15.66;78.93;97441.44;5074654;28;20578;-65
2022/04/25 09:08:44;;;;;;;15.13;13.53;;;;;;;15.69;77.59;97446.44;5074579;28;20217;-65
2022/04/25 09:13:56;;;;;;;15.53;13.93;;;;;;;15.90;79.72;97444.31;5074237;28;20724;-65
2022/04/25 09:16:24;;;;;;;15.93;14.27;;;;;;;15.98;80.05;97450.53;5074069;28;20224;-64
2022/04/25 09:18:51;;;;;;;14.70;13.20;;;;;;;16.02;81.20;97455.38;5072320;28;20225;-66
2022/04/25 09:21:17;;;;;;;14.40;13.00;;;;;;;15.96;78.74;97459.66;5074475;28;20589;-65
2022/04/25 09:23:44;;;;;;;15.77;14.00;;;;;;;15.93;75.89;97457.28;5074258;28;20324;-65
2022/04/25 09:26:12;;;;;;;15.80;14.20;;;;;;;16.08;77.38;97461.91;5074197;28;20211;-65
2022/04/25 09:28:49;;;;;;;16.87;15.13;;;;;;;16.20;76.87;97458.84;5073661;28;20225;-65
2022/04/25 09:31:16;;;;;;;14.40;13.00;;;;;;;16.32;78.55;97460.25;5073240;28;20214;-65
2022/04/25 09:33:44;;;;;;;15.30;13.70;;;;;;;16.43;76.52;97456.50;5072174;28;20231;-65
2022/04/25 09:36:11;;;;;;;13.63;12.33;;;;;;;16.38;72.98;97459.66;5074185;28;20217;-65
2022/04/25 09:38:40;;;;;;;15.30;13.70;;;;;;;16.43;74.30;97462.69;5073978;28;20219;-65
2022/04/25 09:41:09;;;;;;;15.47;13.87;;;;;;;16.13;67.89;97465.81;5073873;28;20214;-65
2022/04/25 09:43:38;;;;;;;13.87;12.57;;;;;;;16.09;72.23;97464.44;5073893;28;20703;-65
2022/04/25 09:46:08;;;;;;;15.03;13.53;;;;;;;16.08;72.24;97461.09;5071813;28;20691;-65
2022/04/25 09:48:34;;;;;;;15.53;13.93;;;;;;;16.01;68.97;97460.03;5071896;28;20218;-66
2022/04/25 09:51:05;;;;;;;13.37;12.03;;;;;;;16.23;70.93;97460.38;5073579;28;20218;-65
2022/04/25 09:53:42;;;;;;;14.93;13.43;;;;;;;16.40;71.42;97457.66;5073662;28;20214;-65
2022/04/25 09:56:17;;;;;;;13.97;12.57;;;;;;;16.73;69.67;97458.66;5073559;28;20209;-65
2022/04/25 09:58:45;;;;;;;13.60;12.30;;;;;;;17.07;70.35;97457.63;5072235;28;20680;-65
2022/04/25 10:01:13;;;;;;;15.07;13.57;;;;;;;17.40;73.01;97467.44;5073584;28;20218;-66
2022/04/25 10:03:40;;;;;;;14.00;12.60;;;;;;;17.63;69.26;97463.09;5073078;28;20295;-65
2022/04/25 10:06:09;;;;;;;14.87;13.37;;;;;;;17.70;69.21;97455.28;5073224;28;20219;-65
2022/04/25 10:08:37;;;;;;;13.43;12.03;;;;;;;17.77;70.13;97465.13;5073426;28;20246;-66
2022/04/25 10:11:05;;;;;;;13.70;12.40;;;;;;;17.87;68.74;97457.78;5073453;28;20608;-64
2022/04/25 10:13:32;;;;;;;13.17;11.93;;;;;;;17.94;63.82;97461.47;5071341;28;20652;-65
2022/04/25 10:16:00;;;;;;;12.37;11.10;;;;;;;17.97;60.97;97458.44;5073033;28;20219;-65
2022/04/25 10:18:27;;;;;;;12.43;11.23;;;;;;;18.07;57.50;97448.41;5072913;28;20226;-66
2022/04/25 10:20:54;;;;;;;14.57;13.07;;;;;;;18.07;57.15;97459.13;5073248;28;20564;-66
2022/04/25 10:23:21;;;;;;;12.70;11.50;;;;;;;17.77;57.94;97457.13;5073244;28;20262;-65
2022/04/25 10:25:50;;;;;;;11.63;10.43;;;;;;;17.83;60.90;97456.44;5070962;28;20222;-65
2022/04/25 10:28:20;;;;;;;12.40;11.20;;;;;;;18.00;62.49;97447.44;5073156;28;20676;-66
2022/04/25 10:30:49;;;;;;;13.27;12.07;;;;;;;18.08;63.54;97450.09;5073144;28;20212;-66
2022/04/25 10:33:16;;;;;;;14.30;12.80;;;;;;;18.21;64.66;97449.56;5072966;28;20219;-65
2022/04/25 10:35:43;;;;;;;13.30;12.00;;;;;;;18.33;64.86;97456.25;5072777;28;20219;-66
2022/04/25 10:38:49;;;;;;;14.73;13.23;;;;;;;18.54;64.69;97449.34;5072536;28;20222;-64
2022/04/25 10:44:46;;;;;;;12.37;11.07;;;;;;;18.70;59.56;97461.84;5070071;28;20242;-64
2022/04/25 10:47:14;;;;;;;10.77;9.77;;;;;;;18.43;57.18;97455.09;5068737;28;20214;-65
2022/04/25 10:49:42;;;;;;;11.33;10.23;;;;;;;18.22;58.26;97449.41;5072503;28;20256;-65
2022/04/25 10:52:43;;;;;;;11.53;10.50;;;;;;;17.86;60.06;97461.44;5072748;28;20258;-64
2022/04/25 10:55:19;;;;;;;11.27;10.17;;;;;;;17.55;59.65;97452.41;5072819;28;20219;-65
2022/04/25 10:58:15;;;;;;;11.33;10.23;;;;;;;17.35;60.61;97467.06;5072059;28;20211;-65
2022/04/25 11:00:53;;;;;;;12.77;11.50;;;;;;;17.20;61.43;97463.31;5072381;28;20715;-64
2022/04/25 11:03:23;;;;;;;13.23;11.90;;;;;;;16.99;61.74;97473.63;5072479;28;20250;-64
2022/04/25 11:05:50;;;;;;;12.50;11.27;;;;;;;16.69;62.01;97468.81;5070698;28;20730;-64
2022/04/25 11:08:28;;;;;;;14.43;13.03;;;;;;;16.56;59.69;97471.09;5072735;28;20306;-65
2022/04/25 11:11:04;;;;;;;12.87;11.60;;;;;;;16.38;62.83;97475.66;5072664;28;20247;-65
2022/04/25 11:13:32;;;;;;;13.33;11.93;;;;;;;16.16;61.64;97477.97;5071757;28;20223;-66
2022/04/25 11:16:01;;;;;;;13.03;11.73;;;;;;;16.12;61.95;97481.13;5072567;28;20241;-65
2022/04/25 11:18:33;;;;;;;12.80;11.50;;;;;;;16.03;60.67;97493.56;5072668;28;20221;-65
2022/04/25 11:21:04;;;;;;;12.83;11.57;;;;;;;15.96;63.30;97481.00;5072438;28;20222;-65
2022/04/25 11:23:32;;;;;;;12.00;10.80;;;;;;;15.96;66.29;97484.50;5068666;28;20288;-65
2022/04/25 11:26:00;;;;;;;14.33;11.97;;;;;;;15.51;66.27;97489.09;5071185;28;20264;-66
2022/04/25 11:28:29;;;;;;;14.40;13.00;;;;;;;14.88;70.50;97499.81;5071084;28;20215;-65
2022/04/25 11:31:21;;;;;;;14.53;13.03;;;;;;;14.28;75.22;97500.31;5070565;28;20213;-65
2022/04/25 11:33:49;;;;;;;14.90;13.33;;;;;;;13.97;81.71;97501.47;5059769;28;20287;-66
2022/04/25 11:36:16;;;;;;;15.33;13.83;;;;;;;13.92;86.94;97503.72;5071214;28;20218;-66
2022/04/25 11:41:29;;;;;;;14.50;13.00;;;;;;;13.69;84.71;97507.66;5070407;28;20220;-65
2022/04/25 11:43:58;;;;;;;13.87;12.47;;;;;;;13.51;83.37;97510.16;5070614;28;20251;-65
2022/04/25 11:46:25;;;;;;;15.10;13.50;;;;;;;13.64;85.22;97509.91;5070774;28;20674;-65
2022/04/25 11:48:52;;;;;;;14.87;12.80;;;;;;;13.74;85.17;97511.56;5070889;28;20231;-65
2022/04/25 11:51:25;;;;;;;15.87;14.20;;;;;;;13.83;86.41;97508.09;5059442;28;20223;-67
2022/04/25 11:53:52;;;;;;;15.40;13.80;;;;;;;14.09;86.57;97513.63;5070612;28;20220;-65